Austin, Texas
Traffic Map
Current Weather Conditions
Austin, Texas
Clear
Clear
47°
Feels Like: 47°
Wind Chill: 47° Ceiling: Unl
Heat Index: 47° Visibility: 10mi
Dew Point: 35° Wind: 0mph
Humidity: 63% Direction: ° ()
Pressure: 30.23in Gusts: 0mph
Raw Report DataKATT 260251Z AUTO 00000KT 10SM CLR 08/02 A3023 RMK AO2 SLP239 T00830017 51005
Traffic Incident Summary
Active as of:
Severity:
Category:
InformationThere was an issue retrieving the traffic information for this location. Please try a different location or try again shortly.
Advertisements
Track Severe Weather on mobile